sensor_id;sensor_type;location;lat;lon;timestamp;P1;durP1;ratioP1;P2;durP2;ratioP2
43070;SDS011;36278;47.952;21.714;2023-02-19T00:00:58;33.03;;;21.27;;
43070;SDS011;36278;47.952;21.714;2023-02-19T00:03:25;25.63;;;18.57;;
43070;SDS011;36278;47.952;21.714;2023-02-19T00:05:51;37.37;;;19.03;;
43070;SDS011;36278;47.952;21.714;2023-02-19T00:08:16;28.70;;;18.87;;
43070;SDS011;36278;47.952;21.714;2023-02-19T00:10:42;27.90;;;18.07;;
43070;SDS011;36278;47.952;21.714;2023-02-19T00:13:07;26.63;;;17.93;;
43070;SDS011;36278;47.952;21.714;2023-02-19T00:15:33;28.87;;;18.00;;
43070;SDS011;36278;47.952;21.714;2023-02-19T00:17:58;25.60;;;17.80;;
43070;SDS011;36278;47.952;21.714;2023-02-19T00:20:24;27.07;;;18.27;;
43070;SDS011;36278;47.952;21.714;2023-02-19T00:22:49;26.73;;;18.47;;
43070;SDS011;36278;47.952;21.714;2023-02-19T00:25:15;31.27;;;18.60;;
43070;SDS011;36278;47.952;21.714;2023-02-19T00:27:41;27.10;;;18.50;;
43070;SDS011;36278;47.952;21.714;2023-02-19T00:30:07;29.40;;;18.80;;
43070;SDS011;36278;47.952;21.714;2023-02-19T00:32:32;26.73;;;16.77;;
43070;SDS011;36278;47.952;21.714;2023-02-19T00:34:58;24.60;;;15.53;;
43070;SDS011;36278;47.952;21.714;2023-02-19T00:37:23;23.70;;;14.83;;
43070;SDS011;36278;47.952;21.714;2023-02-19T00:39:49;20.00;;;15.13;;
43070;SDS011;36278;47.952;21.714;2023-02-19T00:42:14;21.80;;;13.87;;
43070;SDS011;36278;47.952;21.714;2023-02-19T00:44:40;19.40;;;12.70;;
43070;SDS011;36278;47.952;21.714;2023-02-19T00:47:05;19.97;;;13.13;;
43070;SDS011;36278;47.952;21.714;2023-02-19T00:49:31;19.47;;;12.33;;
43070;SDS011;36278;47.952;21.714;2023-02-19T00:51:56;20.13;;;13.00;;
43070;SDS011;36278;47.952;21.714;2023-02-19T00:54:22;18.20;;;12.03;;
43070;SDS011;36278;47.952;21.714;2023-02-19T00:56:47;17.03;;;12.30;;
43070;SDS011;36278;47.952;21.714;2023-02-19T00:59:13;16.80;;;11.97;;
43070;SDS011;36278;47.952;21.714;2023-02-19T01:01:39;17.50;;;12.43;;
43070;SDS011;36278;47.952;21.714;2023-02-19T01:04:05;18.20;;;11.73;;
43070;SDS011;36278;47.952;21.714;2023-02-19T01:06:31;17.70;;;12.40;;
43070;SDS011;36278;47.952;21.714;2023-02-19T01:08:57;18.57;;;11.23;;
43070;SDS011;36278;47.952;21.714;2023-02-19T01:11:23;15.60;;;10.30;;
43070;SDS011;36278;47.952;21.714;2023-02-19T01:13:49;13.53;;;9.83;;
43070;SDS011;36278;47.952;21.714;2023-02-19T01:16:18;14.37;;;10.10;;
43070;SDS011;36278;47.952;21.714;2023-02-19T01:18:46;14.53;;;9.43;;
43070;SDS011;36278;47.952;21.714;2023-02-19T01:21:16;14.83;;;9.80;;
43070;SDS011;36278;47.952;21.714;2023-02-19T01:23:47;16.13;;;9.33;;
43070;SDS011;36278;47.952;21.714;2023-02-19T01:26:15;15.00;;;9.37;;
43070;SDS011;36278;47.952;21.714;2023-02-19T01:28:45;14.40;;;9.43;;
43070;SDS011;36278;47.952;21.714;2023-02-19T01:31:13;13.40;;;8.80;;
43070;SDS011;36278;47.952;21.714;2023-02-19T01:33:48;13.20;;;8.67;;
43070;SDS011;36278;47.952;21.714;2023-02-19T01:36:15;12.03;;;7.83;;
43070;SDS011;36278;47.952;21.714;2023-02-19T01:38:41;12.10;;;8.27;;
43070;SDS011;36278;47.952;21.714;2023-02-19T01:41:07;11.90;;;8.23;;
43070;SDS011;36278;47.952;21.714;2023-02-19T01:43:53;11.80;;;7.77;;
43070;SDS011;36278;47.952;21.714;2023-02-19T01:46:38;10.47;;;6.93;;
43070;SDS011;36278;47.952;21.714;2023-02-19T01:51:39;12.90;;;7.37;;
43070;SDS011;36278;47.952;21.714;2023-02-19T01:54:09;9.93;;;6.70;;
43070;SDS011;36278;47.952;21.714;2023-02-19T01:56:38;9.67;;;6.87;;
43070;SDS011;36278;47.952;21.714;2023-02-19T01:59:06;10.37;;;7.07;;
43070;SDS011;36278;47.952;21.714;2023-02-19T02:01:33;10.23;;;6.37;;
43070;SDS011;36278;47.952;21.714;2023-02-19T02:04:01;9.27;;;6.60;;
43070;SDS011;36278;47.952;21.714;2023-02-19T02:06:30;9.77;;;7.00;;
43070;SDS011;36278;47.952;21.714;2023-02-19T02:09:01;9.67;;;6.20;;
43070;SDS011;36278;47.952;21.714;2023-02-19T02:11:47;8.80;;;6.67;;
43070;SDS011;36278;47.952;21.714;2023-02-19T02:14:14;11.07;;;7.40;;
43070;SDS011;36278;47.952;21.714;2023-02-19T02:16:57;10.90;;;7.80;;
43070;SDS011;36278;47.952;21.714;2023-02-19T02:33:25;7.40;;;4.97;;
43070;SDS011;36278;47.952;21.714;2023-02-19T02:36:05;7.20;;;5.20;;
43070;SDS011;36278;47.952;21.714;2023-02-19T02:38:35;9.97;;;4.77;;
43070;SDS011;36278;47.952;21.714;2023-02-19T02:41:02;6.80;;;4.83;;
43070;SDS011;36278;47.952;21.714;2023-02-19T02:43:29;8.23;;;4.83;;
43070;SDS011;36278;47.952;21.714;2023-02-19T02:45:55;7.10;;;4.00;;
43070;SDS011;36278;47.952;21.714;2023-02-19T02:53:52;7.20;;;3.93;;
43070;SDS011;36278;47.952;21.714;2023-02-19T02:56:38;5.93;;;3.80;;
43070;SDS011;36278;47.952;21.714;2023-02-19T02:59:06;7.00;;;4.57;;
43070;SDS011;36278;47.952;21.714;2023-02-19T03:01:39;7.63;;;4.10;;
43070;SDS011;36278;47.952;21.714;2023-02-19T03:07:45;7.93;;;4.63;;
43070;SDS011;36278;47.952;21.714;2023-02-19T03:10:17;6.60;;;4.60;;
43070;SDS011;36278;47.952;21.714;2023-02-19T03:12:46;7.47;;;4.97;;
43070;SDS011;36278;47.952;21.714;2023-02-19T03:15:36;7.20;;;4.47;;
43070;SDS011;36278;47.952;21.714;2023-02-19T03:18:25;7.47;;;4.20;;
43070;SDS011;36278;47.952;21.714;2023-02-19T03:21:14;6.40;;;4.23;;
43070;SDS011;36278;47.952;21.714;2023-02-19T03:23:43;7.10;;;4.43;;
43070;SDS011;36278;47.952;21.714;2023-02-19T03:26:30;6.20;;;4.43;;
43070;SDS011;36278;47.952;21.714;2023-02-19T03:28:57;6.43;;;4.17;;
43070;SDS011;36278;47.952;21.714;2023-02-19T03:31:43;6.90;;;4.40;;
43070;SDS011;36278;47.952;21.714;2023-02-19T03:34:13;8.00;;;4.37;;
43070;SDS011;36278;47.952;21.714;2023-02-19T03:36:47;6.37;;;4.07;;
43070;SDS011;36278;47.952;21.714;2023-02-19T03:39:19;7.60;;;4.07;;
43070;SDS011;36278;47.952;21.714;2023-02-19T03:57:38;5.07;;;3.37;;
43070;SDS011;36278;47.952;21.714;2023-02-19T04:00:10;7.50;;;3.83;;
43070;SDS011;36278;47.952;21.714;2023-02-19T04:05:30;5.70;;;3.60;;
43070;SDS011;36278;47.952;21.714;2023-02-19T04:07:58;5.97;;;3.50;;
43070;SDS011;36278;47.952;21.714;2023-02-19T04:10:28;6.70;;;3.63;;
43070;SDS011;36278;47.952;21.714;2023-02-19T04:12:57;4.70;;;3.33;;
43070;SDS011;36278;47.952;21.714;2023-02-19T04:15:28;5.73;;;3.63;;
43070;SDS011;36278;47.952;21.714;2023-02-19T04:17:59;4.97;;;3.03;;
43070;SDS011;36278;47.952;21.714;2023-02-19T04:20:28;6.97;;;3.50;;
43070;SDS011;36278;47.952;21.714;2023-02-19T04:22:56;6.00;;;3.03;;
43070;SDS011;36278;47.952;21.714;2023-02-19T04:25:22;6.23;;;3.10;;
43070;SDS011;36278;47.952;21.714;2023-02-19T04:27:50;4.77;;;3.37;;
43070;SDS011;36278;47.952;21.714;2023-02-19T04:30:15;5.27;;;3.30;;
43070;SDS011;36278;47.952;21.714;2023-02-19T04:32:43;5.70;;;3.50;;
43070;SDS011;36278;47.952;21.714;2023-02-19T04:35:08;7.27;;;3.90;;
43070;SDS011;36278;47.952;21.714;2023-02-19T04:37:34;5.80;;;3.53;;
43070;SDS011;36278;47.952;21.714;2023-02-19T04:39:59;7.47;;;4.53;;
43070;SDS011;36278;47.952;21.714;2023-02-19T04:42:24;6.17;;;4.20;;
43070;SDS011;36278;47.952;21.714;2023-02-19T04:44:50;5.70;;;3.67;;
43070;SDS011;36278;47.952;21.714;2023-02-19T04:47:15;8.67;;;3.80;;
43070;SDS011;36278;47.952;21.714;2023-02-19T04:49:42;5.67;;;3.07;;
43070;SDS011;36278;47.952;21.714;2023-02-19T04:52:08;6.03;;;4.13;;
43070;SDS011;36278;47.952;21.714;2023-02-19T04:54:33;5.40;;;4.00;;
43070;SDS011;36278;47.952;21.714;2023-02-19T04:56:59;5.83;;;3.87;;
43070;SDS011;36278;47.952;21.714;2023-02-19T04:59:24;5.33;;;3.83;;
43070;SDS011;36278;47.952;21.714;2023-02-19T05:01:49;6.27;;;4.60;;
43070;SDS011;36278;47.952;21.714;2023-02-19T05:04:15;6.53;;;4.60;;
43070;SDS011;36278;47.952;21.714;2023-02-19T05:06:40;5.93;;;3.93;;
43070;SDS011;36278;47.952;21.714;2023-02-19T05:09:06;8.50;;;4.20;;
43070;SDS011;36278;47.952;21.714;2023-02-19T05:11:31;6.07;;;4.10;;
43070;SDS011;36278;47.952;21.714;2023-02-19T05:13:57;5.87;;;4.27;;
43070;SDS011;36278;47.952;21.714;2023-02-19T05:16:22;6.03;;;4.57;;
43070;SDS011;36278;47.952;21.714;2023-02-19T05:18:48;5.77;;;4.13;;
43070;SDS011;36278;47.952;21.714;2023-02-19T05:21:13;6.10;;;3.97;;
43070;SDS011;36278;47.952;21.714;2023-02-19T05:23:40;7.30;;;4.30;;
43070;SDS011;36278;47.952;21.714;2023-02-19T05:26:10;8.40;;;4.50;;
43070;SDS011;36278;47.952;21.714;2023-02-19T05:28:37;6.00;;;4.57;;
43070;SDS011;36278;47.952;21.714;2023-02-19T05:31:04;7.40;;;4.37;;
43070;SDS011;36278;47.952;21.714;2023-02-19T05:33:31;7.80;;;4.57;;
43070;SDS011;36278;47.952;21.714;2023-02-19T05:35:57;6.20;;;4.50;;
43070;SDS011;36278;47.952;21.714;2023-02-19T05:38:22;6.33;;;4.77;;
43070;SDS011;36278;47.952;21.714;2023-02-19T05:40:48;6.27;;;3.83;;
43070;SDS011;36278;47.952;21.714;2023-02-19T05:43:14;8.47;;;4.50;;
43070;SDS011;36278;47.952;21.714;2023-02-19T05:45:40;8.10;;;4.90;;
43070;SDS011;36278;47.952;21.714;2023-02-19T05:48:06;7.70;;;4.67;;
43070;SDS011;36278;47.952;21.714;2023-02-19T05:50:32;7.20;;;4.40;;
43070;SDS011;36278;47.952;21.714;2023-02-19T05:53:02;6.77;;;4.97;;
43070;SDS011;36278;47.952;21.714;2023-02-19T05:55:28;6.63;;;4.43;;
43070;SDS011;36278;47.952;21.714;2023-02-19T05:57:57;6.07;;;4.53;;
43070;SDS011;36278;47.952;21.714;2023-02-19T06:00:23;6.67;;;4.93;;
43070;SDS011;36278;47.952;21.714;2023-02-19T06:02:51;6.97;;;4.70;;
43070;SDS011;36278;47.952;21.714;2023-02-19T06:05:16;6.20;;;4.20;;
43070;SDS011;36278;47.952;21.714;2023-02-19T06:07:42;7.10;;;4.47;;
43070;SDS011;36278;47.952;21.714;2023-02-19T06:10:08;5.30;;;3.67;;
43070;SDS011;36278;47.952;21.714;2023-02-19T06:12:35;7.13;;;4.20;;
43070;SDS011;36278;47.952;21.714;2023-02-19T06:15:00;6.37;;;4.33;;
43070;SDS011;36278;47.952;21.714;2023-02-19T06:17:26;5.73;;;4.10;;
43070;SDS011;36278;47.952;21.714;2023-02-19T06:19:51;7.67;;;3.80;;
43070;SDS011;36278;47.952;21.714;2023-02-19T06:22:16;5.33;;;3.70;;
43070;SDS011;36278;47.952;21.714;2023-02-19T06:24:42;4.77;;;3.23;;
43070;SDS011;36278;47.952;21.714;2023-02-19T06:27:08;5.87;;;3.97;;
43070;SDS011;36278;47.952;21.714;2023-02-19T06:29:34;5.53;;;3.80;;
43070;SDS011;36278;47.952;21.714;2023-02-19T06:32:02;4.60;;;3.13;;
43070;SDS011;36278;47.952;21.714;2023-02-19T06:34:29;4.97;;;3.47;;
43070;SDS011;36278;47.952;21.714;2023-02-19T06:36:55;5.13;;;3.03;;
43070;SDS011;36278;47.952;21.714;2023-02-19T06:39:21;5.80;;;3.60;;
43070;SDS011;36278;47.952;21.714;2023-02-19T06:41:46;4.80;;;3.50;;
43070;SDS011;36278;47.952;21.714;2023-02-19T06:44:12;10.30;;;3.73;;
43070;SDS011;36278;47.952;21.714;2023-02-19T06:46:37;6.43;;;4.20;;
43070;SDS011;36278;47.952;21.714;2023-02-19T06:49:03;4.93;;;3.40;;
43070;SDS011;36278;47.952;21.714;2023-02-19T06:51:29;5.33;;;3.97;;
43070;SDS011;36278;47.952;21.714;2023-02-19T06:53:56;6.43;;;3.70;;
43070;SDS011;36278;47.952;21.714;2023-02-19T06:56:27;5.40;;;3.90;;
43070;SDS011;36278;47.952;21.714;2023-02-19T06:58:55;5.63;;;3.80;;
43070;SDS011;36278;47.952;21.714;2023-02-19T07:01:23;5.60;;;4.17;;
43070;SDS011;36278;47.952;21.714;2023-02-19T07:03:49;6.47;;;4.53;;
43070;SDS011;36278;47.952;21.714;2023-02-19T07:06:16;6.30;;;4.50;;
43070;SDS011;36278;47.952;21.714;2023-02-19T07:08:42;6.60;;;4.13;;
43070;SDS011;36278;47.952;21.714;2023-02-19T07:11:07;5.90;;;4.23;;
43070;SDS011;36278;47.952;21.714;2023-02-19T07:13:33;6.00;;;3.87;;
43070;SDS011;36278;47.952;21.714;2023-02-19T07:16:05;5.53;;;3.83;;
43070;SDS011;36278;47.952;21.714;2023-02-19T07:18:33;6.37;;;4.30;;
43070;SDS011;36278;47.952;21.714;2023-02-19T07:23:29;5.67;;;3.80;;
43070;SDS011;36278;47.952;21.714;2023-02-19T07:25:55;6.63;;;4.37;;
43070;SDS011;36278;47.952;21.714;2023-02-19T07:28:20;6.70;;;4.47;;
43070;SDS011;36278;47.952;21.714;2023-02-19T07:30:46;8.40;;;4.60;;
43070;SDS011;36278;47.952;21.714;2023-02-19T07:33:11;8.33;;;5.00;;
43070;SDS011;36278;47.952;21.714;2023-02-19T07:35:37;7.83;;;5.47;;
43070;SDS011;36278;47.952;21.714;2023-02-19T07:38:08;10.77;;;6.20;;
43070;SDS011;36278;47.952;21.714;2023-02-19T07:40:34;10.23;;;5.77;;
43070;SDS011;36278;47.952;21.714;2023-02-19T07:43:00;11.83;;;5.53;;
43070;SDS011;36278;47.952;21.714;2023-02-19T07:45:26;9.30;;;5.37;;
43070;SDS011;36278;47.952;21.714;2023-02-19T07:47:51;11.77;;;5.50;;
43070;SDS011;36278;47.952;21.714;2023-02-19T07:50:17;5.70;;;4.10;;
43070;SDS011;36278;47.952;21.714;2023-02-19T07:52:42;5.50;;;3.57;;
43070;SDS011;36278;47.952;21.714;2023-02-19T07:55:08;5.07;;;3.13;;
43070;SDS011;36278;47.952;21.714;2023-02-19T07:57:33;6.27;;;2.80;;
43070;SDS011;36278;47.952;21.714;2023-02-19T07:59:59;4.20;;;2.67;;
43070;SDS011;36278;47.952;21.714;2023-02-19T08:02:24;3.23;;;2.47;;
43070;SDS011;36278;47.952;21.714;2023-02-19T08:05:08;4.53;;;2.53;;
43070;SDS011;36278;47.952;21.714;2023-02-19T08:07:35;7.37;;;3.90;;
43070;SDS011;36278;47.952;21.714;2023-02-19T08:10:01;8.60;;;5.47;;
43070;SDS011;36278;47.952;21.714;2023-02-19T08:12:58;8.10;;;4.80;;
43070;SDS011;36278;47.952;21.714;2023-02-19T08:16:07;5.30;;;3.77;;
43070;SDS011;36278;47.952;21.714;2023-02-19T08:18:35;4.40;;;2.83;;
43070;SDS011;36278;47.952;21.714;2023-02-19T08:21:01;4.13;;;2.70;;
43070;SDS011;36278;47.952;21.714;2023-02-19T08:23:26;4.27;;;3.13;;
43070;SDS011;36278;47.952;21.714;2023-02-19T08:25:53;5.03;;;3.17;;
43070;SDS011;36278;47.952;21.714;2023-02-19T08:28:22;7.03;;;3.60;;
43070;SDS011;36278;47.952;21.714;2023-02-19T08:30:47;6.53;;;3.80;;
43070;SDS011;36278;47.952;21.714;2023-02-19T08:33:14;5.60;;;3.40;;
43070;SDS011;36278;47.952;21.714;2023-02-19T08:35:41;5.13;;;3.20;;
43070;SDS011;36278;47.952;21.714;2023-02-19T08:38:08;5.40;;;3.57;;
43070;SDS011;36278;47.952;21.714;2023-02-19T08:40:35;6.00;;;3.20;;
43070;SDS011;36278;47.952;21.714;2023-02-19T08:43:03;5.47;;;3.03;;
43070;SDS011;36278;47.952;21.714;2023-02-19T08:45:29;4.17;;;2.87;;
43070;SDS011;36278;47.952;21.714;2023-02-19T08:47:55;3.60;;;2.50;;
43070;SDS011;36278;47.952;21.714;2023-02-19T08:50:20;3.57;;;2.27;;
43070;SDS011;36278;47.952;21.714;2023-02-19T08:52:46;3.17;;;2.60;;
43070;SDS011;36278;47.952;21.714;2023-02-19T08:55:12;4.50;;;2.90;;
43070;SDS011;36278;47.952;21.714;2023-02-19T08:57:38;4.23;;;2.70;;
43070;SDS011;36278;47.952;21.714;2023-02-19T09:00:04;4.23;;;2.60;;
43070;SDS011;36278;47.952;21.714;2023-02-19T09:02:31;4.73;;;2.87;;
43070;SDS011;36278;47.952;21.714;2023-02-19T09:04:56;4.13;;;2.80;;
43070;SDS011;36278;47.952;21.714;2023-02-19T09:07:22;3.73;;;2.73;;
43070;SDS011;36278;47.952;21.714;2023-02-19T09:09:47;3.17;;;2.53;;
43070;SDS011;36278;47.952;21.714;2023-02-19T09:12:13;4.00;;;2.70;;
43070;SDS011;36278;47.952;21.714;2023-02-19T09:14:39;4.17;;;2.77;;
43070;SDS011;36278;47.952;21.714;2023-02-19T09:17:05;4.07;;;2.70;;
43070;SDS011;36278;47.952;21.714;2023-02-19T09:19:32;4.10;;;2.70;;
43070;SDS011;36278;47.952;21.714;2023-02-19T09:21:58;3.73;;;2.27;;
43070;SDS011;36278;47.952;21.714;2023-02-19T09:24:24;3.13;;;2.37;;
43070;SDS011;36278;47.952;21.714;2023-02-19T09:26:50;6.67;;;2.40;;
43070;SDS011;36278;47.952;21.714;2023-02-19T09:29:16;4.13;;;2.27;;
43070;SDS011;36278;47.952;21.714;2023-02-19T09:31:42;3.33;;;2.27;;
43070;SDS011;36278;47.952;21.714;2023-02-19T09:34:08;2.93;;;1.70;;
43070;SDS011;36278;47.952;21.714;2023-02-19T09:36:33;3.20;;;2.10;;
43070;SDS011;36278;47.952;21.714;2023-02-19T09:38:59;3.73;;;2.10;;
43070;SDS011;36278;47.952;21.714;2023-02-19T09:41:30;4.00;;;2.27;;
43070;SDS011;36278;47.952;21.714;2023-02-19T09:43:58;5.40;;;2.63;;
43070;SDS011;36278;47.952;21.714;2023-02-19T09:46:42;3.27;;;2.30;;
43070;SDS011;36278;47.952;21.714;2023-02-19T09:49:12;3.63;;;2.57;;
43070;SDS011;36278;47.952;21.714;2023-02-19T09:51:38;4.70;;;2.80;;
43070;SDS011;36278;47.952;21.714;2023-02-19T09:54:11;3.27;;;2.50;;
43070;SDS011;36278;47.952;21.714;2023-02-19T09:56:44;3.63;;;2.00;;
43070;SDS011;36278;47.952;21.714;2023-02-19T09:59:13;2.97;;;2.10;;
43070;SDS011;36278;47.952;21.714;2023-02-19T10:01:44;3.07;;;2.20;;
43070;SDS011;36278;47.952;21.714;2023-02-19T10:04:13;2.87;;;2.00;;
43070;SDS011;36278;47.952;21.714;2023-02-19T10:06:39;3.07;;;2.03;;
43070;SDS011;36278;47.952;21.714;2023-02-19T10:09:12;3.80;;;2.20;;
43070;SDS011;36278;47.952;21.714;2023-02-19T10:11:45;4.77;;;2.40;;
43070;SDS011;36278;47.952;21.714;2023-02-19T10:14:14;3.27;;;2.17;;
43070;SDS011;36278;47.952;21.714;2023-02-19T10:16:47;3.10;;;2.23;;
43070;SDS011;36278;47.952;21.714;2023-02-19T10:19:14;5.67;;;2.30;;
43070;SDS011;36278;47.952;21.714;2023-02-19T10:21:40;3.23;;;2.33;;
43070;SDS011;36278;47.952;21.714;2023-02-19T10:24:06;3.37;;;2.00;;
43070;SDS011;36278;47.952;21.714;2023-02-19T10:26:38;4.63;;;2.17;;
43070;SDS011;36278;47.952;21.714;2023-02-19T10:29:04;3.00;;;2.10;;
43070;SDS011;36278;47.952;21.714;2023-02-19T10:31:30;3.83;;;2.27;;
43070;SDS011;36278;47.952;21.714;2023-02-19T10:33:58;4.20;;;2.53;;
43070;SDS011;36278;47.952;21.714;2023-02-19T10:36:32;3.03;;;2.03;;
43070;SDS011;36278;47.952;21.714;2023-02-19T10:41:47;6.17;;;2.50;;
43070;SDS011;36278;47.952;21.714;2023-02-19T10:44:20;3.17;;;2.30;;
43070;SDS011;36278;47.952;21.714;2023-02-19T10:46:50;4.83;;;2.67;;
43070;SDS011;36278;47.952;21.714;2023-02-19T10:51:54;4.67;;;2.70;;
43070;SDS011;36278;47.952;21.714;2023-02-19T10:54:26;4.43;;;2.70;;
43070;SDS011;36278;47.952;21.714;2023-02-19T10:57:40;3.40;;;2.23;;
43070;SDS011;36278;47.952;21.714;2023-02-19T10:59:55;3.40;;;2.20;;
43070;SDS011;36278;47.952;21.714;2023-02-19T11:02:24;4.30;;;2.50;;
43070;SDS011;36278;47.952;21.714;2023-02-19T11:05:04;3.03;;;2.60;;
43070;SDS011;36278;47.952;21.714;2023-02-19T11:10:34;5.40;;;3.40;;
43070;SDS011;36278;47.952;21.714;2023-02-19T11:13:03;4.50;;;3.10;;
43070;SDS011;36278;47.952;21.714;2023-02-19T11:15:31;4.53;;;3.10;;
43070;SDS011;36278;47.952;21.714;2023-02-19T11:20:52;5.27;;;3.83;;
43070;SDS011;36278;47.952;21.714;2023-02-19T11:23:30;7.57;;;4.30;;
43070;SDS011;36278;47.952;21.714;2023-02-19T11:25:56;8.90;;;4.63;;
43070;SDS011;36278;47.952;21.714;2023-02-19T11:37:06;8.98;;;6.28;;
43070;SDS011;36278;47.952;21.714;2023-02-19T11:39:34;8.87;;;6.73;;
43070;SDS011;36278;47.952;21.714;2023-02-19T11:42:07;10.93;;;7.60;;
43070;SDS011;36278;47.952;21.714;2023-02-19T11:47:53;11.17;;;7.20;;
43070;SDS011;36278;47.952;21.714;2023-02-19T11:53:44;11.87;;;8.47;;
43070;SDS011;36278;47.952;21.714;2023-02-19T11:56:17;13.97;;;9.30;;
43070;SDS011;36278;47.952;21.714;2023-02-19T11:58:58;10.80;;;8.80;;
43070;SDS011;36278;47.952;21.714;2023-02-19T12:32:22;9.53;;;5.60;;
43070;SDS011;36278;47.952;21.714;2023-02-19T12:35:05;9.88;;;5.40;;
43070;SDS011;36278;47.952;21.714;2023-02-19T12:42:55;4.23;;;3.27;;
43070;SDS011;36278;47.952;21.714;2023-02-19T12:45:41;4.27;;;2.80;;
43070;SDS011;36278;47.952;21.714;2023-02-19T12:51:05;3.00;;;2.27;;
43070;SDS011;36278;47.952;21.714;2023-02-19T12:53:39;3.57;;;2.30;;
43070;SDS011;36278;47.952;21.714;2023-02-19T12:56:16;5.60;;;2.20;;
43070;SDS011;36278;47.952;21.714;2023-02-19T12:58:49;2.47;;;1.90;;
43070;SDS011;36278;47.952;21.714;2023-02-19T13:01:24;1.80;;;1.40;;
43070;SDS011;36278;47.952;21.714;2023-02-19T13:06:34;2.27;;;1.30;;
43070;SDS011;36278;47.952;21.714;2023-02-19T13:09:12;2.25;;;1.30;;
43070;SDS011;36278;47.952;21.714;2023-02-19T13:16:40;1.30;;;1.00;;
43070;SDS011;36278;47.952;21.714;2023-02-19T13:19:12;3.40;;;1.10;;
43070;SDS011;36278;47.952;21.714;2023-02-19T13:21:39;4.50;;;1.07;;
43070;SDS011;36278;47.952;21.714;2023-02-19T13:24:33;2.63;;;1.63;;
43070;SDS011;36278;47.952;21.714;2023-02-19T13:30:01;1.63;;;1.00;;
43070;SDS011;36278;47.952;21.714;2023-02-19T13:35:35;4.15;;;1.08;;
43070;SDS011;36278;47.952;21.714;2023-02-19T13:38:22;1.60;;;0.90;;
43070;SDS011;36278;47.952;21.714;2023-02-19T13:40:52;1.97;;;1.20;;
43070;SDS011;36278;47.952;21.714;2023-02-19T13:43:27;5.60;;;1.10;;
43070;SDS011;36278;47.952;21.714;2023-02-19T13:46:08;4.60;;;1.00;;
43070;SDS011;36278;47.952;21.714;2023-02-19T13:48:38;2.10;;;1.00;;
43070;SDS011;36278;47.952;21.714;2023-02-19T14:14:44;4.23;;;1.53;;
43070;SDS011;36278;47.952;21.714;2023-02-19T14:25:41;3.90;;;1.43;;
43070;SDS011;36278;47.952;21.714;2023-02-19T14:33:14;2.13;;;1.40;;
43070;SDS011;36278;47.952;21.714;2023-02-19T14:35:42;2.63;;;1.60;;
43070;SDS011;36278;47.952;21.714;2023-02-19T14:38:20;2.70;;;1.47;;
43070;SDS011;36278;47.952;21.714;2023-02-19T14:40:50;2.67;;;1.40;;
43070;SDS011;36278;47.952;21.714;2023-02-19T14:43:17;1.70;;;1.37;;
43070;SDS011;36278;47.952;21.714;2023-02-19T14:46:07;2.37;;;1.47;;
43070;SDS011;36278;47.952;21.714;2023-02-19T14:48:35;2.80;;;1.47;;
43070;SDS011;36278;47.952;21.714;2023-02-19T14:51:05;2.93;;;1.53;;
43070;SDS011;36278;47.952;21.714;2023-02-19T14:53:33;2.43;;;1.20;;
43070;SDS011;36278;47.952;21.714;2023-02-19T14:56:03;2.10;;;1.57;;
43070;SDS011;36278;47.952;21.714;2023-02-19T14:58:31;2.40;;;1.30;;
43070;SDS011;36278;47.952;21.714;2023-02-19T15:00:57;1.60;;;1.20;;
43070;SDS011;36278;47.952;21.714;2023-02-19T15:08:46;2.08;;;1.20;;
43070;SDS011;36278;47.952;21.714;2023-02-19T15:11:19;1.88;;;1.33;;
43070;SDS011;36278;47.952;21.714;2023-02-19T15:13:48;2.37;;;1.27;;
43070;SDS011;36278;47.952;21.714;2023-02-19T15:16:19;2.35;;;1.58;;
43070;SDS011;36278;47.952;21.714;2023-02-19T15:18:47;1.63;;;1.20;;
43070;SDS011;36278;47.952;21.714;2023-02-19T15:21:24;2.30;;;1.60;;
43070;SDS011;36278;47.952;21.714;2023-02-19T15:24:00;7.27;;;2.90;;
43070;SDS011;36278;47.952;21.714;2023-02-19T15:26:32;6.47;;;3.25;;
43070;SDS011;36278;47.952;21.714;2023-02-19T15:29:01;5.05;;;3.30;;
43070;SDS011;36278;47.952;21.714;2023-02-19T15:31:28;4.13;;;2.70;;
43070;SDS011;36278;47.952;21.714;2023-02-19T15:33:54;4.33;;;2.90;;
43070;SDS011;36278;47.952;21.714;2023-02-19T15:36:30;4.63;;;2.90;;
43070;SDS011;36278;47.952;21.714;2023-02-19T15:38:58;4.80;;;2.73;;
43070;SDS011;36278;47.952;21.714;2023-02-19T15:41:26;4.37;;;3.03;;
43070;SDS011;36278;47.952;21.714;2023-02-19T15:44:19;5.33;;;2.77;;
43070;SDS011;36278;47.952;21.714;2023-02-19T15:46:51;4.70;;;2.60;;
43070;SDS011;36278;47.952;21.714;2023-02-19T15:51:49;5.50;;;2.83;;
43070;SDS011;36278;47.952;21.714;2023-02-19T15:54:34;5.70;;;3.13;;
43070;SDS011;36278;47.952;21.714;2023-02-19T15:57:29;4.97;;;3.30;;
43070;SDS011;36278;47.952;21.714;2023-02-19T16:00:02;4.67;;;3.20;;
43070;SDS011;36278;47.952;21.714;2023-02-19T16:02:43;54.67;;;42.73;;
43070;SDS011;36278;47.952;21.714;2023-02-19T16:05:13;7.17;;;3.53;;
43070;SDS011;36278;47.952;21.714;2023-02-19T16:07:42;4.83;;;3.57;;
43070;SDS011;36278;47.952;21.714;2023-02-19T16:12:57;5.53;;;3.23;;
43070;SDS011;36278;47.952;21.714;2023-02-19T16:15:25;5.37;;;3.50;;
43070;SDS011;36278;47.952;21.714;2023-02-19T16:17:52;3.93;;;3.13;;
43070;SDS011;36278;47.952;21.714;2023-02-19T16:20:23;6.93;;;3.50;;
43070;SDS011;36278;47.952;21.714;2023-02-19T16:22:55;5.00;;;3.40;;
43070;SDS011;36278;47.952;21.714;2023-02-19T16:25:28;9.30;;;4.72;;
43070;SDS011;36278;47.952;21.714;2023-02-19T16:28:07;6.10;;;3.63;;
43070;SDS011;36278;47.952;21.714;2023-02-19T16:30:37;7.37;;;4.60;;
43070;SDS011;36278;47.952;21.714;2023-02-19T16:33:20;9.17;;;4.57;;
43070;SDS011;36278;47.952;21.714;2023-02-19T16:35:56;6.97;;;5.03;;
43070;SDS011;36278;47.952;21.714;2023-02-19T16:38:22;8.07;;;4.90;;
43070;SDS011;36278;47.952;21.714;2023-02-19T16:45:44;8.73;;;5.23;;
43070;SDS011;36278;47.952;21.714;2023-02-19T16:48:10;8.07;;;5.37;;
43070;SDS011;36278;47.952;21.714;2023-02-19T16:50:37;10.33;;;6.27;;
43070;SDS011;36278;47.952;21.714;2023-02-19T16:53:05;9.47;;;5.67;;
43070;SDS011;36278;47.952;21.714;2023-02-19T16:55:32;10.30;;;5.67;;
43070;SDS011;36278;47.952;21.714;2023-02-19T16:57:59;9.43;;;6.37;;
43070;SDS011;36278;47.952;21.714;2023-02-19T17:00:25;9.80;;;6.53;;
43070;SDS011;36278;47.952;21.714;2023-02-19T17:02:56;9.70;;;6.30;;
43070;SDS011;36278;47.952;21.714;2023-02-19T17:05:24;10.17;;;6.70;;
43070;SDS011;36278;47.952;21.714;2023-02-19T17:07:51;9.43;;;6.70;;
43070;SDS011;36278;47.952;21.714;2023-02-19T17:10:21;8.57;;;6.47;;
43070;SDS011;36278;47.952;21.714;2023-02-19T17:12:49;9.53;;;6.77;;
43070;SDS011;36278;47.952;21.714;2023-02-19T17:15:15;10.87;;;7.60;;
43070;SDS011;36278;47.952;21.714;2023-02-19T17:17:41;9.47;;;6.83;;
43070;SDS011;36278;47.952;21.714;2023-02-19T17:20:17;11.43;;;7.10;;
43070;SDS011;36278;47.952;21.714;2023-02-19T17:22:48;11.40;;;7.20;;
43070;SDS011;36278;47.952;21.714;2023-02-19T17:25:14;10.33;;;6.73;;
43070;SDS011;36278;47.952;21.714;2023-02-19T17:27:39;9.53;;;7.47;;
43070;SDS011;36278;47.952;21.714;2023-02-19T17:30:12;8.90;;;5.47;;
43070;SDS011;36278;47.952;21.714;2023-02-19T17:32:42;6.33;;;4.20;;
43070;SDS011;36278;47.952;21.714;2023-02-19T17:35:08;4.30;;;3.10;;
43070;SDS011;36278;47.952;21.714;2023-02-19T17:37:33;5.37;;;2.93;;
43070;SDS011;36278;47.952;21.714;2023-02-19T17:39:59;4.23;;;2.57;;
43070;SDS011;36278;47.952;21.714;2023-02-19T17:42:25;3.73;;;2.23;;